Legend — WDF9316 — position and weather

sailwx.info

Track history (hours):
 
Tides and Currents Weather Stations Pressure Air Temp Water Temp Dewpoint Dewpoint Depression Visibility Wind Speed Wind Dir Waves Ship Positions

Legend

Owner: Crowley Maritime, Seattle, WA. More information available from US FCC via Universal Licensing System and Coast Guard Vessel Documentation Center.

Last reported at 2016-Apr-30 23:30 UTC. Time now 2016-May-01 13:36 UTC.
Position N 29°58' W 090°16'.

Length 212 m; draft 7.6 m.

Type: Towing. MMSI: 366709000.

Date/timePositionNaut miles runAvg speedWind from/ knotsBaromVisibWave heightAir tempDewpointWater temp
2016-Apr-30 23:30N 29°58' W 090°16'0 0.0
2016-Apr-30 22:30N 29°58' W 090°16'0 0.0
2016-Apr-30 05:25N 29°58' W 090°16'4 3.6
2016-Apr-30 04:25N 29°56' W 090°13'5 5.7
2016-Apr-30 03:33N 29°55' W 090°07'7 6.8
2016-Apr-30 02:33N 29°56' W 089°60'5 5.3
2016-Apr-30 01:33N 29°52' W 089°56'8 7.8
2016-Apr-30 00:33N 29°46' W 090°01'39110.7
2016-Apr-28 12:03N 27°35' W 083°02'612.6
2016-Apr-28 11:33N 27°36' W 082°55'1212.1
2016-Apr-28 10:33N 27°37' W 082°41'1111.2
2016-Apr-28 09:33N 27°44' W 082°32'10 9.6
2016-Apr-28 08:33N 27°53' W 082°26'4 3.9
2016-Apr-28 07:33N 27°57' W 082°27'0 0.2
2016-Apr-28 06:32N 27°57' W 082°27'0 0.0
2016-Apr-28 05:32N 27°57' W 082°27'0 0.0
2016-Apr-28 04:32N 27°57' W 082°27'0 0.0
2016-Apr-28 03:32N 27°57' W 082°27'0 0.0
2016-Apr-28 02:32N 27°57' W 082°27'0 0.0
2016-Apr-28 01:32N 27°57' W 082°27'0 0.0
2016-Apr-28 00:32N 27°57' W 082°27'0 0.0
2016-Apr-27 23:32N 27°57' W 082°27'0 0.0
2016-Apr-27 22:32N 27°57' W 082°27'0 0.0
2016-Apr-27 21:32N 27°57' W 082°27'0 0.0
2016-Apr-27 20:32N 27°57' W 082°27'0 0.0
2016-Apr-27 19:32N 27°57' W 082°27'0 0.0
2016-Apr-27 18:32N 27°57' W 082°27'0 0.0
2016-Apr-27 17:32N 27°57' W 082°27'0 0.0
2016-Apr-27 16:32N 27°57' W 082°27'0 0.0
2016-Apr-27 15:32N 27°57' W 082°27'0 0.0
2016-Apr-27 14:32N 27°57' W 082°27'0 0.0
2016-Apr-27 13:32N 27°57' W 082°27'0 0.0
2016-Apr-27 12:32N 27°57' W 082°27'0 0.0
2016-Apr-27 11:32N 27°57' W 082°27'0 0.0
2016-Apr-27 10:32N 27°57' W 082°27'2 1.9
2016-Apr-27 09:33N 27°55' W 082°27'0 0.0
2016-Apr-27 08:33N 27°55' W 082°27'0 0.0
2016-Apr-27 07:30N 27°55' W 082°27'0 0.0
2016-Apr-27 06:33N 27°55' W 082°27'0 0.0
2016-Apr-27 05:33N 27°55' W 082°27'0 0.0
2016-Apr-27 04:33N 27°55' W 082°27'0 0.0
2016-Apr-27 03:33N 27°55' W 082°27'0 0.0
2016-Apr-27 02:33N 27°55' W 082°27'0 0.0
2016-Apr-27 01:33N 27°55' W 082°27'0 0.0
2016-Apr-27 00:33N 27°55' W 082°27'0 0.0
2016-Apr-26 23:33N 27°55' W 082°27'0 0.0
2016-Apr-26 22:33N 27°55' W 082°27'0 0.0
2016-Apr-26 21:33N 27°55' W 082°27'0 0.0
2016-Apr-26 20:33N 27°55' W 082°27'0 0.0
2016-Apr-26 19:33N 27°55' W 082°27'0 0.0
2016-Apr-26 18:33N 27°55' W 082°27'0 0.0
2016-Apr-26 17:33N 27°55' W 082°27'0 0.0
2016-Apr-26 16:33N 27°55' W 082°27'0 0.0
2016-Apr-26 15:33N 27°55' W 082°27'0 0.0
2016-Apr-26 14:33N 27°55' W 082°27'0 0.0
2016-Apr-26 13:33N 27°55' W 082°27'0 0.0
2016-Apr-26 12:33N 27°55' W 082°27'0 0.0
2016-Apr-26 11:33N 27°55' W 082°27'6 5.9
2016-Apr-26 10:33N 27°49' W 082°27'1111.3
2016-Apr-26 09:33N 27°41' W 082°35'  
2016-Apr-23 23:10N 29°43' W 089°59'813.2
2016-Apr-23 22:33N 29°51' W 089°59'6 5.9
2016-Apr-23 21:33N 29°56' W 090°00'9 8.7
2016-Apr-23 20:32N 29°56' W 090°10'23 0.6
2016-Apr-22 09:18N 30°03' W 090°35'17 2.8
2016-Apr-22 03:22N 29°58' W 090°17'6 7.2
2016-Apr-22 02:32N 29°57' W 090°10'6 6.0
2016-Apr-22 01:33N 29°56' W 090°03'2 2.0
2016-Apr-22 00:33N 29°57' W 090°01'0 0.0
2016-Apr-21 23:31N 29°57' W 090°01'0 0.0
2016-Apr-21 22:31N 29°57' W 090°01'0 0.0
2016-Apr-21 21:31N 29°57' W 090°01'0 0.0
2016-Apr-21 20:31N 29°57' W 090°01'0 0.0
2016-Apr-21 19:31N 29°57' W 090°01'0 0.0
2016-Apr-21 18:31N 29°57' W 090°01'0 0.0
2016-Apr-21 17:31N 29°57' W 090°01'0 0.0
2016-Apr-21 16:31N 29°57' W 090°01'0 0.0
2016-Apr-21 15:31N 29°57' W 090°01'0 0.0
2016-Apr-21 14:31N 29°57' W 090°01'0 0.0
2016-Apr-21 13:31N 29°57' W 090°01'0 0.0
2016-Apr-21 12:31N 29°57' W 090°01'0 0.0
2016-Apr-21 11:31N 29°57' W 090°01'0 0.0
2016-Apr-21 10:31N 29°57' W 090°01'0 0.0
2016-Apr-21 09:31N 29°57' W 090°01'0 0.0
2016-Apr-21 08:31N 29°57' W 090°01'0 0.0
2016-Apr-21 07:31N 29°57' W 090°01'0 0.0
2016-Apr-21 06:31N 29°57' W 090°01'0 0.0
2016-Apr-21 05:31N 29°57' W 090°01'0 0.0
2016-Apr-21 04:31N 29°57' W 090°01'0 0.0
2016-Apr-21 03:31N 29°57' W 090°01'0 0.0
2016-Apr-21 02:31N 29°57' W 090°01'0 0.0
2016-Apr-21 01:31N 29°57' W 090°01'0 0.0
2016-Apr-21 00:31N 29°57' W 090°01'0 0.0
2016-Apr-20 23:31N 29°57' W 090°01'  
Track history (hours):
 
Tides and Currents Weather Stations Pressure Air Temp Water Temp Dewpoint Dewpoint Depression Visibility Wind Speed Wind Dir Waves Ship Positions

Legend

Owner: Crowley Maritime, Seattle, WA. More information available from US FCC via Universal Licensing System and Coast Guard Vessel Documentation Center.

Last reported at 2016-Apr-30 23:30 UTC. Time now 2016-May-01 13:36 UTC.
Position N 29°58' W 090°16'.

Length 212 m; draft 7.6 m.

Type: Towing. MMSI: 366709000.

Date/timePositionNaut miles runAvg speedWind from/ knotsBaromVisibWave heightAir tempDewpointWater temp
2016-Apr-30 23:30N 29°58' W 090°16'0 0.0
2016-Apr-30 22:30N 29°58' W 090°16'0 0.0
2016-Apr-30 05:25N 29°58' W 090°16'4 3.6
2016-Apr-30 04:25N 29°56' W 090°13'5 5.7
2016-Apr-30 03:33N 29°55' W 090°07'7 6.8
2016-Apr-30 02:33N 29°56' W 089°60'5 5.3
2016-Apr-30 01:33N 29°52' W 089°56'8 7.8
2016-Apr-30 00:33N 29°46' W 090°01'39110.7
2016-Apr-28 12:03N 27°35' W 083°02'612.6
2016-Apr-28 11:33N 27°36' W 082°55'1212.1
2016-Apr-28 10:33N 27°37' W 082°41'1111.2
2016-Apr-28 09:33N 27°44' W 082°32'10 9.6
2016-Apr-28 08:33N 27°53' W 082°26'4 3.9
2016-Apr-28 07:33N 27°57' W 082°27'0 0.2
2016-Apr-28 06:32N 27°57' W 082°27'0 0.0
2016-Apr-28 05:32N 27°57' W 082°27'0 0.0
2016-Apr-28 04:32N 27°57' W 082°27'0 0.0
2016-Apr-28 03:32N 27°57' W 082°27'0 0.0
2016-Apr-28 02:32N 27°57' W 082°27'0 0.0
2016-Apr-28 01:32N 27°57' W 082°27'0 0.0
2016-Apr-28 00:32N 27°57' W 082°27'0 0.0
2016-Apr-27 23:32N 27°57' W 082°27'0 0.0
2016-Apr-27 22:32N 27°57' W 082°27'0 0.0
2016-Apr-27 21:32N 27°57' W 082°27'0 0.0
2016-Apr-27 20:32N 27°57' W 082°27'0 0.0
2016-Apr-27 19:32N 27°57' W 082°27'0 0.0
2016-Apr-27 18:32N 27°57' W 082°27'0 0.0
2016-Apr-27 17:32N 27°57' W 082°27'0 0.0
2016-Apr-27 16:32N 27°57' W 082°27'0 0.0
2016-Apr-27 15:32N 27°57' W 082°27'0 0.0
2016-Apr-27 14:32N 27°57' W 082°27'0 0.0
2016-Apr-27 13:32N 27°57' W 082°27'0 0.0
2016-Apr-27 12:32N 27°57' W 082°27'0 0.0
2016-Apr-27 11:32N 27°57' W 082°27'0 0.0
2016-Apr-27 10:32N 27°57' W 082°27'2 1.9
2016-Apr-27 09:33N 27°55' W 082°27'0 0.0
2016-Apr-27 08:33N 27°55' W 082°27'0 0.0
2016-Apr-27 07:30N 27°55' W 082°27'0 0.0
2016-Apr-27 06:33N 27°55' W 082°27'0 0.0
2016-Apr-27 05:33N 27°55' W 082°27'0 0.0
2016-Apr-27 04:33N 27°55' W 082°27'0 0.0
2016-Apr-27 03:33N 27°55' W 082°27'0 0.0
2016-Apr-27 02:33N 27°55' W 082°27'0 0.0
2016-Apr-27 01:33N 27°55' W 082°27'0 0.0
2016-Apr-27 00:33N 27°55' W 082°27'0 0.0
2016-Apr-26 23:33N 27°55' W 082°27'0 0.0
2016-Apr-26 22:33N 27°55' W 082°27'0 0.0
2016-Apr-26 21:33N 27°55' W 082°27'0 0.0
2016-Apr-26 20:33N 27°55' W 082°27'0 0.0
2016-Apr-26 19:33N 27°55' W 082°27'0 0.0
2016-Apr-26 18:33N 27°55' W 082°27'0 0.0
2016-Apr-26 17:33N 27°55' W 082°27'0 0.0
2016-Apr-26 16:33N 27°55' W 082°27'0 0.0
2016-Apr-26 15:33N 27°55' W 082°27'0 0.0
2016-Apr-26 14:33N 27°55' W 082°27'0 0.0
2016-Apr-26 13:33N 27°55' W 082°27'0 0.0
2016-Apr-26 12:33N 27°55' W 082°27'0 0.0
2016-Apr-26 11:33N 27°55' W 082°27'6 5.9
2016-Apr-26 10:33N 27°49' W 082°27'1111.3
2016-Apr-26 09:33N 27°41' W 082°35'  
2016-Apr-23 23:10N 29°43' W 089°59'813.2
2016-Apr-23 22:33N 29°51' W 089°59'6 5.9
2016-Apr-23 21:33N 29°56' W 090°00'9 8.7
2016-Apr-23 20:32N 29°56' W 090°10'23 0.6
2016-Apr-22 09:18N 30°03' W 090°35'17 2.8
2016-Apr-22 03:22N 29°58' W 090°17'6 7.2
2016-Apr-22 02:32N 29°57' W 090°10'6 6.0
2016-Apr-22 01:33N 29°56' W 090°03'2 2.0
2016-Apr-22 00:33N 29°57' W 090°01'0 0.0
2016-Apr-21 23:31N 29°57' W 090°01'0 0.0
2016-Apr-21 22:31N 29°57' W 090°01'0 0.0
2016-Apr-21 21:31N 29°57' W 090°01'0 0.0
2016-Apr-21 20:31N 29°57' W 090°01'0 0.0
2016-Apr-21 19:31N 29°57' W 090°01'0 0.0
2016-Apr-21 18:31N 29°57' W 090°01'0 0.0
2016-Apr-21 17:31N 29°57' W 090°01'0 0.0
2016-Apr-21 16:31N 29°57' W 090°01'0 0.0
2016-Apr-21 15:31N 29°57' W 090°01'0 0.0
2016-Apr-21 14:31N 29°57' W 090°01'0 0.0
2016-Apr-21 13:31N 29°57' W 090°01'0 0.0
2016-Apr-21 12:31N 29°57' W 090°01'0 0.0
2016-Apr-21 11:31N 29°57' W 090°01'0 0.0
2016-Apr-21 10:31N 29°57' W 090°01'0 0.0
2016-Apr-21 09:31N 29°57' W 090°01'0 0.0
2016-Apr-21 08:31N 29°57' W 090°01'0 0.0
2016-Apr-21 07:31N 29°57' W 090°01'0 0.0
2016-Apr-21 06:31N 29°57' W 090°01'0 0.0
2016-Apr-21 05:31N 29°57' W 090°01'0 0.0
2016-Apr-21 04:31N 29°57' W 090°01'0 0.0
2016-Apr-21 03:31N 29°57' W 090°01'0 0.0
2016-Apr-21 02:31N 29°57' W 090°01'0 0.0
2016-Apr-21 01:31N 29°57' W 090°01'0 0.0
2016-Apr-21 00:31N 29°57' W 090°01'0 0.0
2016-Apr-20 23:31N 29°57' W 090°01'  

Dump ship's entire track history